sensor_id;sensor_type;location;lat;lon;timestamp;pressure;altitude;pressure_sealevel;temperature;humidity
74045;BME280;62389;51.412;5.436;2023-09-19T00:00:59;100721.22;;;14.75;96.65
74045;BME280;62389;51.412;5.436;2023-09-19T00:03:25;100722.38;;;14.71;96.90
74045;BME280;62389;51.412;5.436;2023-09-19T00:05:53;100717.13;;;14.71;97.08
74045;BME280;62389;51.412;5.436;2023-09-19T00:08:20;100712.59;;;14.73;96.43
74045;BME280;62389;51.412;5.436;2023-09-19T00:10:49;100723.22;;;14.71;96.51
74045;BME280;62389;51.412;5.436;2023-09-19T00:13:15;100722.19;;;14.74;96.81
74045;BME280;62389;51.412;5.436;2023-09-19T00:15:42;100727.00;;;14.67;96.72
74045;BME280;62389;51.412;5.436;2023-09-19T00:18:08;100726.44;;;14.62;97.17
74045;BME280;62389;51.412;5.436;2023-09-19T00:20:37;100732.72;;;14.60;96.93
74045;BME280;62389;51.412;5.436;2023-09-19T00:23:04;100730.75;;;14.63;96.31
74045;BME280;62389;51.412;5.436;2023-09-19T00:25:29;100730.84;;;14.62;96.87
74045;BME280;62389;51.412;5.436;2023-09-19T00:27:55;100730.00;;;14.61;96.79
74045;BME280;62389;51.412;5.436;2023-09-19T00:30:20;100736.19;;;14.60;96.69
74045;BME280;62389;51.412;5.436;2023-09-19T00:32:50;100736.13;;;14.62;95.59
74045;BME280;62389;51.412;5.436;2023-09-19T00:35:20;100745.81;;;14.61;96.19
74045;BME280;62389;51.412;5.436;2023-09-19T00:37:46;100756.63;;;14.57;95.63
74045;BME280;62389;51.412;5.436;2023-09-19T00:40:12;100759.31;;;14.55;95.42
74045;BME280;62389;51.412;5.436;2023-09-19T00:42:38;100755.09;;;14.53;95.40
74045;BME280;62389;51.412;5.436;2023-09-19T00:45:05;100757.91;;;14.49;95.18
74045;BME280;62389;51.412;5.436;2023-09-19T00:47:31;100757.31;;;14.44;94.61
74045;BME280;62389;51.412;5.436;2023-09-19T00:49:57;100752.25;;;14.41;94.97
74045;BME280;62389;51.412;5.436;2023-09-19T00:52:23;100764.47;;;14.42;94.67
74045;BME280;62389;51.412;5.436;2023-09-19T00:54:49;100761.00;;;14.42;94.56
74045;BME280;62389;51.412;5.436;2023-09-19T00:57:14;100773.38;;;14.40;94.06
74045;BME280;62389;51.412;5.436;2023-09-19T00:59:41;100773.03;;;14.32;94.17
74045;BME280;62389;51.412;5.436;2023-09-19T01:02:07;100773.88;;;14.32;93.89
74045;BME280;62389;51.412;5.436;2023-09-19T01:04:33;100781.81;;;14.31;93.62
74045;BME280;62389;51.412;5.436;2023-09-19T01:06:59;100781.75;;;14.32;94.35
74045;BME280;62389;51.412;5.436;2023-09-19T01:09:24;100790.59;;;14.31;93.06
74045;BME280;62389;51.412;5.436;2023-09-19T01:11:53;100795.28;;;14.26;93.35
74045;BME280;62389;51.412;5.436;2023-09-19T01:17:07;100792.66;;;14.26;93.54
74045;BME280;62389;51.412;5.436;2023-09-19T01:25:31;100807.75;;;14.22;93.25
74045;BME280;62389;51.412;5.436;2023-09-19T01:30:43;100805.88;;;14.24;92.91
74045;BME280;62389;51.412;5.436;2023-09-19T01:33:09;100806.25;;;14.18;91.37
74045;BME280;62389;51.412;5.436;2023-09-19T01:35:40;100813.38;;;14.16;92.18
74045;BME280;62389;51.412;5.436;2023-09-19T01:38:08;100808.56;;;14.09;90.64
74045;BME280;62389;51.412;5.436;2023-09-19T01:40:43;100804.16;;;14.09;91.40
74045;BME280;62389;51.412;5.436;2023-09-19T01:43:33;100814.59;;;14.11;92.22
74045;BME280;62389;51.412;5.436;2023-09-19T01:46:09;100819.00;;;14.10;91.44
74045;BME280;62389;51.412;5.436;2023-09-19T01:51:15;100814.78;;;14.08;90.87
74045;BME280;62389;51.412;5.436;2023-09-19T01:53:55;100811.41;;;14.06;90.39
74045;BME280;62389;51.412;5.436;2023-09-19T01:56:30;100812.50;;;14.02;90.20
74045;BME280;62389;51.412;5.436;2023-09-19T01:59:01;100815.97;;;14.02;90.08
74045;BME280;62389;51.412;5.436;2023-09-19T02:01:29;100810.72;;;14.02;90.41
74045;BME280;62389;51.412;5.436;2023-09-19T02:03:56;100822.09;;;14.03;88.76
74045;BME280;62389;51.412;5.436;2023-09-19T02:06:21;100807.16;;;14.03;88.23
74045;BME280;62389;51.412;5.436;2023-09-19T02:08:47;100809.88;;;14.02;89.08
74045;BME280;62389;51.412;5.436;2023-09-19T02:11:13;100810.78;;;14.00;87.40
74045;BME280;62389;51.412;5.436;2023-09-19T02:13:38;100815.31;;;13.98;87.51
74045;BME280;62389;51.412;5.436;2023-09-19T02:16:04;100811.72;;;13.99;88.42
74045;BME280;62389;51.412;5.436;2023-09-19T02:18:30;100822.25;;;13.99;87.75
74045;BME280;62389;51.412;5.436;2023-09-19T02:20:56;100809.47;;;13.93;87.00
74045;BME280;62389;51.412;5.436;2023-09-19T02:23:24;100814.81;;;13.92;86.38
74045;BME280;62389;51.412;5.436;2023-09-19T02:25:56;100809.81;;;13.87;86.08
74045;BME280;62389;51.412;5.436;2023-09-19T02:28:29;100809.06;;;13.85;86.38
74045;BME280;62389;51.412;5.436;2023-09-19T02:30:55;100813.41;;;13.86;87.10
74045;BME280;62389;51.412;5.436;2023-09-19T02:33:21;100819.50;;;13.87;86.66
74045;BME280;62389;51.412;5.436;2023-09-19T02:35:47;100817.13;;;13.82;85.81
74045;BME280;62389;51.412;5.436;2023-09-19T02:38:12;100820.19;;;13.74;84.76
74045;BME280;62389;51.412;5.436;2023-09-19T02:40:38;100815.13;;;13.71;86.51
74045;BME280;62389;51.412;5.436;2023-09-19T02:43:03;100819.69;;;13.68;86.56
74045;BME280;62389;51.412;5.436;2023-09-19T02:45:30;100824.94;;;13.68;85.89
74045;BME280;62389;51.412;5.436;2023-09-19T02:47:55;100823.06;;;13.70;85.92
74045;BME280;62389;51.412;5.436;2023-09-19T02:50:21;100816.13;;;13.69;86.13
74045;BME280;62389;51.412;5.436;2023-09-19T02:52:47;100818.84;;;13.67;86.02
74045;BME280;62389;51.412;5.436;2023-09-19T02:55:14;100823.16;;;13.68;87.48
74045;BME280;62389;51.412;5.436;2023-09-19T02:57:53;100827.69;;;13.66;87.07
74045;BME280;62389;51.412;5.436;2023-09-19T03:00:20;100830.63;;;13.60;86.75
74045;BME280;62389;51.412;5.436;2023-09-19T03:02:54;100826.25;;;13.61;86.85
74045;BME280;62389;51.412;5.436;2023-09-19T03:05:20;100828.88;;;13.61;86.69
74045;BME280;62389;51.412;5.436;2023-09-19T03:07:47;100822.59;;;13.63;87.28
74045;BME280;62389;51.412;5.436;2023-09-19T03:10:17;100831.56;;;13.59;87.86
74045;BME280;62389;51.412;5.436;2023-09-19T03:12:43;100833.44;;;13.57;86.56
74045;BME280;62389;51.412;5.436;2023-09-19T03:15:08;100830.91;;;13.56;86.98
74045;BME280;62389;51.412;5.436;2023-09-19T03:17:34;100825.66;;;13.56;87.02
74045;BME280;62389;51.412;5.436;2023-09-19T03:20:01;100829.97;;;13.57;86.89
74045;BME280;62389;51.412;5.436;2023-09-19T03:22:27;100827.16;;;13.60;86.13
74045;BME280;62389;51.412;5.436;2023-09-19T03:24:52;100826.25;;;13.61;87.06
74045;BME280;62389;51.412;5.436;2023-09-19T03:27:19;100820.06;;;13.62;86.56
74045;BME280;62389;51.412;5.436;2023-09-19T03:29:46;100835.81;;;13.62;87.71
74045;BME280;62389;51.412;5.436;2023-09-19T03:32:11;100839.97;;;13.66;87.62
74045;BME280;62389;51.412;5.436;2023-09-19T03:34:37;100835.31;;;13.71;87.70
74045;BME280;62389;51.412;5.436;2023-09-19T03:37:08;100832.59;;;13.72;87.54
74045;BME280;62389;51.412;5.436;2023-09-19T03:39:34;100835.31;;;13.71;88.24
74045;BME280;62389;51.412;5.436;2023-09-19T03:42:00;100831.75;;;13.72;87.14
74045;BME280;62389;51.412;5.436;2023-09-19T03:44:26;100835.22;;;13.72;87.21
74045;BME280;62389;51.412;5.436;2023-09-19T03:46:51;100831.63;;;13.73;88.12
74045;BME280;62389;51.412;5.436;2023-09-19T03:49:16;100824.59;;;13.74;88.65
74045;BME280;62389;51.412;5.436;2023-09-19T03:51:42;100829.28;;;13.69;87.15
74045;BME280;62389;51.412;5.436;2023-09-19T03:54:07;100820.53;;;13.68;88.80
74045;BME280;62389;51.412;5.436;2023-09-19T03:56:33;100816.31;;;13.66;88.50
74045;BME280;62389;51.412;5.436;2023-09-19T03:58:58;100812.06;;;13.63;88.01
74045;BME280;62389;51.412;5.436;2023-09-19T04:01:24;100826.06;;;13.64;89.06
74045;BME280;62389;51.412;5.436;2023-09-19T04:03:49;100819.28;;;13.60;89.04
74045;BME280;62389;51.412;5.436;2023-09-19T04:06:17;100823.94;;;13.55;89.00
74045;BME280;62389;51.412;5.436;2023-09-19T04:08:43;100821.31;;;13.55;89.36
74045;BME280;62389;51.412;5.436;2023-09-19T04:11:09;100819.63;;;13.54;89.83
74045;BME280;62389;51.412;5.436;2023-09-19T04:13:35;100823.34;;;13.50;89.93
74045;BME280;62389;51.412;5.436;2023-09-19T04:16:01;100818.88;;;13.52;90.14
74045;BME280;62389;51.412;5.436;2023-09-19T04:18:27;100824.03;;;13.53;90.53
74045;BME280;62389;51.412;5.436;2023-09-19T04:20:53;100821.50;;;13.52;90.71
74045;BME280;62389;51.412;5.436;2023-09-19T04:23:19;100816.16;;;13.53;90.58
74045;BME280;62389;51.412;5.436;2023-09-19T04:25:47;100824.88;;;13.54;90.14
74045;BME280;62389;51.412;5.436;2023-09-19T04:28:13;100835.22;;;13.57;90.71
74045;BME280;62389;51.412;5.436;2023-09-19T04:30:38;100841.25;;;13.59;90.17
74045;BME280;62389;51.412;5.436;2023-09-19T04:33:07;100838.50;;;13.60;90.12
74045;BME280;62389;51.412;5.436;2023-09-19T04:35:32;100845.75;;;13.57;90.71
74045;BME280;62389;51.412;5.436;2023-09-19T04:37:58;100849.31;;;13.56;91.26
74045;BME280;62389;51.412;5.436;2023-09-19T04:40:23;100861.56;;;13.55;91.52
74045;BME280;62389;51.412;5.436;2023-09-19T04:42:53;100865.81;;;13.58;90.67
74045;BME280;62389;51.412;5.436;2023-09-19T04:45:25;100883.28;;;13.59;90.72
74045;BME280;62389;51.412;5.436;2023-09-19T04:47:51;100881.44;;;13.61;91.31
74045;BME280;62389;51.412;5.436;2023-09-19T04:50:17;100880.41;;;13.63;91.38
74045;BME280;62389;51.412;5.436;2023-09-19T04:52:43;100886.50;;;13.64;90.92
74045;BME280;62389;51.412;5.436;2023-09-19T04:55:18;100876.84;;;13.64;90.55
74045;BME280;62389;51.412;5.436;2023-09-19T05:00:15;100886.34;;;13.67;90.57
74045;BME280;62389;51.412;5.436;2023-09-19T05:02:42;100893.28;;;13.68;91.08
74045;BME280;62389;51.412;5.436;2023-09-19T05:05:09;100899.28;;;13.70;90.77
74045;BME280;62389;51.412;5.436;2023-09-19T05:07:40;100901.94;;;13.70;90.73
74045;BME280;62389;51.412;5.436;2023-09-19T05:10:06;100902.88;;;13.69;90.70
74045;BME280;62389;51.412;5.436;2023-09-19T05:12:35;100905.69;;;13.66;90.73
74045;BME280;62389;51.412;5.436;2023-09-19T05:15:02;100897.00;;;13.64;90.73
74045;BME280;62389;51.412;5.436;2023-09-19T05:17:28;100895.16;;;13.66;91.05
74045;BME280;62389;51.412;5.436;2023-09-19T05:19:54;100902.97;;;13.67;91.03
74045;BME280;62389;51.412;5.436;2023-09-19T05:22:19;100910.00;;;13.67;91.41
74045;BME280;62389;51.412;5.436;2023-09-19T05:24:44;100910.75;;;13.69;91.19
74045;BME280;62389;51.412;5.436;2023-09-19T05:27:12;100914.31;;;13.68;90.91
74045;BME280;62389;51.412;5.436;2023-09-19T05:29:37;100914.31;;;13.68;91.28
74045;BME280;62389;51.412;5.436;2023-09-19T05:32:03;100916.19;;;13.66;91.54
74045;BME280;62389;51.412;5.436;2023-09-19T05:34:29;100905.84;;;13.63;91.44
74045;BME280;62389;51.412;5.436;2023-09-19T05:36:55;100904.16;;;13.62;90.97
74045;BME280;62389;51.412;5.436;2023-09-19T05:39:21;100909.22;;;13.65;91.82
74045;BME280;62389;51.412;5.436;2023-09-19T05:41:46;100909.16;;;13.66;91.75
74045;BME280;62389;51.412;5.436;2023-09-19T05:44:13;100916.00;;;13.69;91.91
74045;BME280;62389;51.412;5.436;2023-09-19T05:46:39;100908.91;;;13.71;92.10
74045;BME280;62389;51.412;5.436;2023-09-19T05:49:04;100915.16;;;13.68;92.34
74045;BME280;62389;51.412;5.436;2023-09-19T05:51:30;100913.38;;;13.69;92.40
74045;BME280;62389;51.412;5.436;2023-09-19T05:53:56;100913.47;;;13.67;92.60
74045;BME280;62389;51.412;5.436;2023-09-19T05:56:21;100909.06;;;13.68;92.78
74045;BME280;62389;51.412;5.436;2023-09-19T05:58:46;100907.38;;;13.67;93.13
74045;BME280;62389;51.412;5.436;2023-09-19T06:01:12;100908.31;;;13.66;93.78
74045;BME280;62389;51.412;5.436;2023-09-19T06:03:39;100907.63;;;13.62;93.68
74045;BME280;62389;51.412;5.436;2023-09-19T06:06:04;100910.25;;;13.62;93.34
74045;BME280;62389;51.412;5.436;2023-09-19T06:08:35;100911.94;;;13.63;93.79
74045;BME280;62389;51.412;5.436;2023-09-19T06:11:00;100903.31;;;13.61;93.65
74045;BME280;62389;51.412;5.436;2023-09-19T06:13:28;100908.38;;;13.64;94.25
74045;BME280;62389;51.412;5.436;2023-09-19T06:15:55;100914.41;;;13.66;93.78
74045;BME280;62389;51.412;5.436;2023-09-19T06:18:21;100918.22;;;13.61;94.17
74045;BME280;62389;51.412;5.436;2023-09-19T06:20:51;100919.22;;;13.58;94.76
74045;BME280;62389;51.412;5.436;2023-09-19T06:23:17;100927.03;;;13.60;94.82
74045;BME280;62389;51.412;5.436;2023-09-19T06:25:43;100920.56;;;13.65;95.02
74045;BME280;62389;51.412;5.436;2023-09-19T06:28:09;100916.09;;;13.67;94.71
74045;BME280;62389;51.412;5.436;2023-09-19T06:30:37;100929.16;;;13.69;94.89
74045;BME280;62389;51.412;5.436;2023-09-19T06:33:06;100925.53;;;13.71;95.56
74045;BME280;62389;51.412;5.436;2023-09-19T06:35:33;100931.38;;;13.77;95.10
74045;BME280;62389;51.412;5.436;2023-09-19T06:37:59;100934.66;;;13.80;95.46
74045;BME280;62389;51.412;5.436;2023-09-19T06:40:28;100943.31;;;13.82;95.07
74045;BME280;62389;51.412;5.436;2023-09-19T06:42:53;100945.75;;;13.85;95.22
74045;BME280;62389;51.412;5.436;2023-09-19T06:45:19;100944.16;;;13.83;95.00
74045;BME280;62389;51.412;5.436;2023-09-19T06:47:47;100942.38;;;13.83;95.28
74045;BME280;62389;51.412;5.436;2023-09-19T06:50:20;100949.16;;;13.87;95.40
74045;BME280;62389;51.412;5.436;2023-09-19T06:52:48;100942.13;;;13.88;95.44
74045;BME280;62389;51.412;5.436;2023-09-19T06:55:20;100941.28;;;13.87;95.66
74045;BME280;62389;51.412;5.436;2023-09-19T06:57:48;100944.75;;;13.88;95.72
74045;BME280;62389;51.412;5.436;2023-09-19T07:00:15;100939.34;;;13.91;95.96
74045;BME280;62389;51.412;5.436;2023-09-19T07:03:06;100955.78;;;13.94;95.50
74045;BME280;62389;51.412;5.436;2023-09-19T07:05:37;100942.63;;;13.94;95.00
74045;BME280;62389;51.412;5.436;2023-09-19T07:08:05;100945.25;;;13.94;95.58
74045;BME280;62389;51.412;5.436;2023-09-19T07:10:31;100944.16;;;13.98;95.37
74045;BME280;62389;51.412;5.436;2023-09-19T07:13:01;100946.53;;;14.03;95.37
74045;BME280;62389;51.412;5.436;2023-09-19T07:15:29;100942.81;;;14.07;95.40
74045;BME280;62389;51.412;5.436;2023-09-19T07:17:56;100943.28;;;14.14;95.84
74045;BME280;62389;51.412;5.436;2023-09-19T07:20:23;100947.72;;;14.13;95.66
74045;BME280;62389;51.412;5.436;2023-09-19T07:22:51;100949.13;;;14.19;95.17
74045;BME280;62389;51.412;5.436;2023-09-19T07:25:17;100949.72;;;14.24;94.89
74045;BME280;62389;51.412;5.436;2023-09-19T07:27:43;100951.25;;;14.28;95.69
74045;BME280;62389;51.412;5.436;2023-09-19T07:30:09;100952.69;;;14.34;94.91
74045;BME280;62389;51.412;5.436;2023-09-19T07:32:35;100963.78;;;14.39;94.86
74045;BME280;62389;51.412;5.436;2023-09-19T07:35:02;100958.09;;;14.46;94.31
74045;BME280;62389;51.412;5.436;2023-09-19T07:37:29;100956.81;;;14.54;93.25
74045;BME280;62389;51.412;5.436;2023-09-19T07:39:56;100945.91;;;14.60;92.98
74045;BME280;62389;51.412;5.436;2023-09-19T07:42:21;100949.97;;;14.65;93.01
74045;BME280;62389;51.412;5.436;2023-09-19T07:44:47;100945.22;;;14.72;92.90
74045;BME280;62389;51.412;5.436;2023-09-19T07:47:15;100945.22;;;14.72;91.76
74045;BME280;62389;51.412;5.436;2023-09-19T07:49:41;100948.44;;;14.77;92.02
74045;BME280;62389;51.412;5.436;2023-09-19T07:52:08;100947.09;;;14.84;91.87
74045;BME280;62389;51.412;5.436;2023-09-19T07:54:34;100953.63;;;14.93;92.54
74045;BME280;62389;51.412;5.436;2023-09-19T07:57:01;100944.91;;;15.07;91.29
74045;BME280;62389;51.412;5.436;2023-09-19T07:59:26;100943.97;;;15.22;90.32
74045;BME280;62389;51.412;5.436;2023-09-19T08:01:52;100955.06;;;15.41;89.31
74045;BME280;62389;51.412;5.436;2023-09-19T08:04:17;100954.69;;;15.47;89.29
74045;BME280;62389;51.412;5.436;2023-09-19T08:06:44;100947.63;;;15.48;88.37
74045;BME280;62389;51.412;5.436;2023-09-19T08:09:10;100953.63;;;15.50;88.21
74045;BME280;62389;51.412;5.436;2023-09-19T08:11:36;100957.09;;;15.50;88.58
74045;BME280;62389;51.412;5.436;2023-09-19T08:14:02;100958.63;;;15.69;89.00
74045;BME280;62389;51.412;5.436;2023-09-19T08:16:27;100957.22;;;16.04;86.93
74045;BME280;62389;51.412;5.436;2023-09-19T08:18:53;100952.72;;;16.46;85.30
74045;BME280;62389;51.412;5.436;2023-09-19T08:21:20;100950.59;;;16.91;82.25
74045;BME280;62389;51.412;5.436;2023-09-19T08:23:46;100954.28;;;17.40;81.79
74045;BME280;62389;51.412;5.436;2023-09-19T08:26:11;100952.81;;;17.98;78.41
74045;BME280;62389;51.412;5.436;2023-09-19T08:28:37;100945.56;;;18.48;75.63
74045;BME280;62389;51.412;5.436;2023-09-19T08:31:06;100948.75;;;18.99;72.66
74045;BME280;62389;51.412;5.436;2023-09-19T08:33:36;100959.63;;;19.63;72.02
74045;BME280;62389;51.412;5.436;2023-09-19T08:36:03;100948.00;;;20.30;68.77
74045;BME280;62389;51.412;5.436;2023-09-19T08:38:34;100954.03;;;20.85;64.96
74045;BME280;62389;51.412;5.436;2023-09-19T08:41:01;100947.25;;;21.02;64.39
74045;BME280;62389;51.412;5.436;2023-09-19T08:43:30;100949.94;;;21.33;62.88
74045;BME280;62389;51.412;5.436;2023-09-19T08:46:15;100955.38;;;20.59;64.26
74045;BME280;62389;51.412;5.436;2023-09-19T08:48:49;100957.50;;;20.33;63.55
74045;BME280;62389;51.412;5.436;2023-09-19T08:51:30;100967.75;;;20.49;64.24
74045;BME280;62389;51.412;5.436;2023-09-19T08:53:58;100962.97;;;19.54;67.01
74045;BME280;62389;51.412;5.436;2023-09-19T08:56:29;100968.16;;;19.67;67.51
74045;BME280;62389;51.412;5.436;2023-09-19T08:59:00;100944.09;;;20.02;65.54
74045;BME280;62389;51.412;5.436;2023-09-19T09:01:28;100948.03;;;20.19;64.82
74045;BME280;62389;51.412;5.436;2023-09-19T09:03:55;100949.88;;;20.07;64.86
74045;BME280;62389;51.412;5.436;2023-09-19T09:06:21;100954.97;;;19.99;66.62
74045;BME280;62389;51.412;5.436;2023-09-19T09:08:48;100953.03;;;20.01;67.00
74045;BME280;62389;51.412;5.436;2023-09-19T09:11:15;100951.97;;;19.92;65.36
74045;BME280;62389;51.412;5.436;2023-09-19T09:13:43;100944.06;;;20.13;66.47
74045;BME280;62389;51.412;5.436;2023-09-19T09:16:10;100945.47;;;20.17;64.20
74045;BME280;62389;51.412;5.436;2023-09-19T09:18:35;100947.00;;;19.99;65.18
74045;BME280;62389;51.412;5.436;2023-09-19T09:21:01;100937.31;;;20.09;65.59
74045;BME280;62389;51.412;5.436;2023-09-19T09:23:27;100945.31;;;20.62;62.99
74045;BME280;62389;51.412;5.436;2023-09-19T09:25:55;100944.53;;;20.72;63.64
74045;BME280;62389;51.412;5.436;2023-09-19T09:28:32;100951.41;;;20.53;62.99
74045;BME280;62389;51.412;5.436;2023-09-19T09:30:59;100950.72;;;20.40;63.78
74045;BME280;62389;51.412;5.436;2023-09-19T09:33:25;100956.28;;;20.37;64.11
74045;BME280;62389;51.412;5.436;2023-09-19T09:35:55;100954.34;;;20.07;65.23
74045;BME280;62389;51.412;5.436;2023-09-19T09:38:45;100959.72;;;19.84;65.41
74045;BME280;62389;51.412;5.436;2023-09-19T09:41:11;100955.84;;;19.77;65.69
74045;BME280;62389;51.412;5.436;2023-09-19T09:43:52;100943.66;;;19.52;64.88
74045;BME280;62389;51.412;5.436;2023-09-19T09:46:19;100943.09;;;19.26;66.00
74045;BME280;62389;51.412;5.436;2023-09-19T09:51:43;100953.34;;;19.08;69.31
74045;BME280;62389;51.412;5.436;2023-09-19T09:54:13;100935.72;;;19.07;68.14
74045;BME280;62389;51.412;5.436;2023-09-19T09:56:57;100939.34;;;19.06;66.86
74045;BME280;62389;51.412;5.436;2023-09-19T09:59:59;100948.03;;;19.08;67.83
74045;BME280;62389;51.412;5.436;2023-09-19T10:02:41;100941.00;;;18.96;68.38
74045;BME280;62389;51.412;5.436;2023-09-19T10:05:20;100921.75;;;18.94;67.16
74045;BME280;62389;51.412;5.436;2023-09-19T10:07:46;100942.69;;;18.97;67.96
74045;BME280;62389;51.412;5.436;2023-09-19T10:10:37;100936.94;;;19.03;67.18
74045;BME280;62389;51.412;5.436;2023-09-19T10:13:25;100931.59;;;18.92;68.65
74045;BME280;62389;51.412;5.436;2023-09-19T10:15:54;100938.63;;;18.93;69.55
74045;BME280;62389;51.412;5.436;2023-09-19T10:18:23;100927.16;;;18.93;67.48
74045;BME280;62389;51.412;5.436;2023-09-19T10:20:49;100921.88;;;18.93;67.09
74045;BME280;62389;51.412;5.436;2023-09-19T10:23:17;100928.25;;;18.90;68.22
74045;BME280;62389;51.412;5.436;2023-09-19T10:25:48;100921.75;;;18.94;68.95
74045;BME280;62389;51.412;5.436;2023-09-19T10:28:15;100918.97;;;19.07;66.66
74045;BME280;62389;51.412;5.436;2023-09-19T10:30:42;100916.44;;;19.17;67.50
74045;BME280;62389;51.412;5.436;2023-09-19T10:33:13;100917.28;;;19.39;64.49
74045;BME280;62389;51.412;5.436;2023-09-19T10:35:42;100920.06;;;19.60;63.75
74045;BME280;62389;51.412;5.436;2023-09-19T10:38:14;100920.59;;;19.86;63.96
74045;BME280;62389;51.412;5.436;2023-09-19T10:40:40;100928.09;;;19.81;62.57
74045;BME280;62389;51.412;5.436;2023-09-19T10:43:14;100917.38;;;19.72;63.86
74045;BME280;62389;51.412;5.436;2023-09-19T10:45:43;100929.69;;;19.73;64.29
74045;BME280;62389;51.412;5.436;2023-09-19T10:48:09;100931.50;;;19.83;64.26
74045;BME280;62389;51.412;5.436;2023-09-19T10:50:47;100922.19;;;19.78;63.58
74045;BME280;62389;51.412;5.436;2023-09-19T10:53:14;100917.84;;;19.77;64.03
74045;BME280;62389;51.412;5.436;2023-09-19T10:55:49;100915.44;;;19.85;63.73
74045;BME280;62389;51.412;5.436;2023-09-19T10:58:26;100918.19;;;19.95;62.79
74045;BME280;62389;51.412;5.436;2023-09-19T11:00:55;100915.16;;;19.88;60.85
74045;BME280;62389;51.412;5.436;2023-09-19T11:03:22;100921.25;;;19.79;62.25
74045;BME280;62389;51.412;5.436;2023-09-19T11:06:09;100913.38;;;19.88;62.84
74045;BME280;62389;51.412;5.436;2023-09-19T11:09:03;100911.84;;;19.75;60.22
74045;BME280;62389;51.412;5.436;2023-09-19T11:11:51;100899.53;;;19.74;61.08
74045;BME280;62389;51.412;5.436;2023-09-19T11:30:46;100885.19;;;20.08;59.16
74045;BME280;62389;51.412;5.436;2023-09-19T11:46:33;100855.03;;;20.51;60.27
74045;BME280;62389;51.412;5.436;2023-09-19T11:49:08;100874.81;;;20.58;59.24
74045;BME280;62389;51.412;5.436;2023-09-19T11:51:46;100859.38;;;20.52;58.37
74045;BME280;62389;51.412;5.436;2023-09-19T11:54:15;100850.50;;;20.63;60.08
74045;BME280;62389;51.412;5.436;2023-09-19T11:56:43;100854.97;;;20.62;57.92
74045;BME280;62389;51.412;5.436;2023-09-19T11:59:10;100838.41;;;20.49;58.64
74045;BME280;62389;51.412;5.436;2023-09-19T12:01:37;100843.94;;;20.46;58.50
74045;BME280;62389;51.412;5.436;2023-09-19T12:04:08;100832.59;;;20.44;59.47
74045;BME280;62389;51.412;5.436;2023-09-19T12:06:35;100839.16;;;20.40;58.62
74045;BME280;62389;51.412;5.436;2023-09-19T12:09:04;100840.53;;;20.34;58.76
74045;BME280;62389;51.412;5.436;2023-09-19T12:11:32;100836.03;;;20.35;59.56
74045;BME280;62389;51.412;5.436;2023-09-19T12:14:01;100843.63;;;20.39;59.68
74045;BME280;62389;51.412;5.436;2023-09-19T12:16:27;100835.59;;;20.51;60.04
74045;BME280;62389;51.412;5.436;2023-09-19T12:18:56;100841.75;;;20.51;59.10
74045;BME280;62389;51.412;5.436;2023-09-19T12:21:27;100838.13;;;20.52;60.11
74045;BME280;62389;51.412;5.436;2023-09-19T12:24:19;100829.97;;;20.44;60.14
74045;BME280;62389;51.412;5.436;2023-09-19T12:26:45;100832.81;;;20.52;61.29
74045;BME280;62389;51.412;5.436;2023-09-19T12:29:21;100848.31;;;20.47;61.14
74045;BME280;62389;51.412;5.436;2023-09-19T12:31:51;100840.00;;;20.40;60.40
74045;BME280;62389;51.412;5.436;2023-09-19T12:34:20;100838.16;;;20.41;61.96
74045;BME280;62389;51.412;5.436;2023-09-19T12:36:46;100844.66;;;20.27;60.58
74045;BME280;62389;51.412;5.436;2023-09-19T12:39:22;100854.09;;;19.99;61.49
74045;BME280;62389;51.412;5.436;2023-09-19T12:41:48;100853.19;;;19.78;62.66
74045;BME280;62389;51.412;5.436;2023-09-19T12:44:15;100859.13;;;19.70;63.12
74045;BME280;62389;51.412;5.436;2023-09-19T12:46:43;100875.94;;;19.59;62.57
74045;BME280;62389;51.412;5.436;2023-09-19T12:49:19;100863.72;;;19.57;64.20
74045;BME280;62389;51.412;5.436;2023-09-19T12:51:48;100855.75;;;19.57;63.56
74045;BME280;62389;51.412;5.436;2023-09-19T12:54:14;100857.47;;;19.58;63.20
74045;BME280;62389;51.412;5.436;2023-09-19T12:56:41;100848.53;;;19.59;63.45
74045;BME280;62389;51.412;5.436;2023-09-19T12:59:12;100841.44;;;19.59;64.37
74045;BME280;62389;51.412;5.436;2023-09-19T13:01:39;100837.31;;;19.66;64.02
74045;BME280;62389;51.412;5.436;2023-09-19T13:04:19;100845.03;;;19.70;63.69
74045;BME280;62389;51.412;5.436;2023-09-19T13:06:45;100840.56;;;19.70;64.74
74045;BME280;62389;51.412;5.436;2023-09-19T13:09:13;100845.03;;;19.70;63.45
74045;BME280;62389;51.412;5.436;2023-09-19T13:11:40;100846.72;;;19.71;63.48
74045;BME280;62389;51.412;5.436;2023-09-19T13:14:26;100849.59;;;19.67;62.54
74045;BME280;62389;51.412;5.436;2023-09-19T13:17:06;100860.97;;;19.58;64.08
74045;BME280;62389;51.412;5.436;2023-09-19T13:19:48;100858.41;;;19.57;63.13
74045;BME280;62389;51.412;5.436;2023-09-19T13:22:42;100859.50;;;19.54;62.89
74045;BME280;62389;51.412;5.436;2023-09-19T13:25:12;100855.28;;;19.52;64.30
74045;BME280;62389;51.412;5.436;2023-09-19T13:27:50;100851.13;;;19.38;64.20
74045;BME280;62389;51.412;5.436;2023-09-19T13:30:22;100845.34;;;19.33;64.26
74045;BME280;62389;51.412;5.436;2023-09-19T13:32:48;100857.63;;;19.34;64.05
74045;BME280;62389;51.412;5.436;2023-09-19T13:35:15;100864.13;;;19.30;64.94
74045;BME280;62389;51.412;5.436;2023-09-19T13:37:41;100854.72;;;19.26;64.58
74045;BME280;62389;51.412;5.436;2023-09-19T13:40:09;100850.28;;;19.26;64.84
74045;BME280;62389;51.412;5.436;2023-09-19T13:42:35;100852.31;;;19.23;64.51
74045;BME280;62389;51.412;5.436;2023-09-19T13:45:02;100857.75;;;19.21;65.30
74045;BME280;62389;51.412;5.436;2023-09-19T13:47:30;100848.25;;;19.19;64.82